createdAt,value
2022-08-29T00:02:41.984Z,67.89
2022-08-29T00:05:34.645Z,68.12
2022-08-29T00:08:21.353Z,68.56
2022-08-29T00:11:07.956Z,68.96
2022-08-29T00:13:53.387Z,68.86
2022-08-29T00:16:38.842Z,69.24
2022-08-29T00:19:25.066Z,69.55
2022-08-29T00:22:10.256Z,69.65
2022-08-29T00:24:55.590Z,70.03
2022-08-29T00:27:40.951Z,70.02
2022-08-29T00:30:31.332Z,70.48
2022-08-29T00:33:17.131Z,70.91
2022-08-29T00:36:02.791Z,71.22
2022-08-29T00:38:49.944Z,71.31
2022-08-29T00:41:35.522Z,71.61
2022-08-29T00:44:20.811Z,71.37
2022-08-29T00:47:12.074Z,71.74
2022-08-29T00:49:59.030Z,71.80
2022-08-29T00:52:47.901Z,71.94
2022-08-29T00:55:35.965Z,72.28
2022-08-29T00:58:31.011Z,72.16
2022-08-29T01:01:17.116Z,72.27
2022-08-29T01:04:02.408Z,72.00
2022-08-29T01:06:52.743Z,72.56
2022-08-29T01:09:39.809Z,72.70
2022-08-29T01:12:26.999Z,73.32
2022-08-29T01:15:13.459Z,73.14
2022-08-29T01:17:59.966Z,72.88
2022-08-29T01:21:13.139Z,73.42
2022-08-29T01:24:11.330Z,73.76
2022-08-29T01:26:57.270Z,73.67
2022-08-29T01:29:43.308Z,73.72
2022-08-29T01:32:28.742Z,74.01
2022-08-29T01:35:14.015Z,74.16
2022-08-29T01:37:59.184Z,74.24
2022-08-29T01:40:44.484Z,74.08
2022-08-29T01:43:30.040Z,74.88
2022-08-29T01:46:19.295Z,74.82
2022-08-29T01:49:07.861Z,75.00
2022-08-29T01:51:53.366Z,75.54
2022-08-29T01:54:41.473Z,74.02
2022-08-29T01:57:26.936Z,74.29
2022-08-29T02:00:12.840Z,74.53
2022-08-29T02:03:00.889Z,74.21
2022-08-29T02:05:47.736Z,74.49
2022-08-29T02:08:33.304Z,74.47
2022-08-29T02:11:19.413Z,74.55
2022-08-29T02:14:05.245Z,75.31
2022-08-29T02:16:51.361Z,75.44
2022-08-29T02:19:38.630Z,74.93
2022-08-29T02:22:24.384Z,75.13
2022-08-29T02:25:29.594Z,74.90
2022-08-29T02:28:17.095Z,75.83
2022-08-29T02:31:03.263Z,76.02
2022-08-29T02:33:49.075Z,76.07
2022-08-29T02:36:35.815Z,76.40
2022-08-29T02:39:20.895Z,76.31
2022-08-29T02:42:06.511Z,76.18
2022-08-29T02:44:51.764Z,76.45
2022-08-29T02:47:37.123Z,76.27
2022-08-29T02:50:25.149Z,75.67
2022-08-29T02:53:11.816Z,75.89
2022-08-29T02:55:57.319Z,76.39
2022-08-29T02:58:42.740Z,76.76
2022-08-29T03:01:28.141Z,76.42
2022-08-29T03:04:13.440Z,75.99
2022-08-29T03:06:58.607Z,76.47
2022-08-29T03:09:43.774Z,76.33
2022-08-29T03:12:29.424Z,76.54
2022-08-29T03:15:18.203Z,76.45
2022-08-29T03:18:04.170Z,76.84
2022-08-29T03:20:49.548Z,76.95
2022-08-29T03:23:34.577Z,76.92
2022-08-29T03:26:20.533Z,76.83
2022-08-29T03:29:05.932Z,77.50
2022-08-29T03:31:51.178Z,76.54
2022-08-29T03:34:36.311Z,76.57
2022-08-29T03:37:21.575Z,76.99
2022-08-29T03:40:10.652Z,77.41
2022-08-29T03:42:56.428Z,77.47
2022-08-29T03:45:42.164Z,77.15
2022-08-29T03:48:27.547Z,77.61
2022-08-29T03:51:13.272Z,78.15
2022-08-29T03:53:58.472Z,78.28
2022-08-29T03:56:43.739Z,78.48
2022-08-29T03:59:28.937Z,78.42
2022-08-29T04:02:14.953Z,78.49
2022-08-29T04:05:09.709Z,78.29
2022-08-29T04:07:57.498Z,78.96
2022-08-29T04:10:42.798Z,78.36
2022-08-29T04:13:28.032Z,78.83
2022-08-29T04:16:17.049Z,79.47
2022-08-29T04:19:02.488Z,79.03
2022-08-29T04:21:48.949Z,79.36
2022-08-29T04:24:35.828Z,79.83
2022-08-29T04:27:21.097Z,79.82
2022-08-29T04:30:09.806Z,80.22
2022-08-29T04:32:55.078Z,79.97
2022-08-29T04:35:40.697Z,80.41
2022-08-29T04:38:26.147Z,80.18
2022-08-29T04:41:15.580Z,80.30
2022-08-29T04:44:01.956Z,80.15
2022-08-29T04:46:47.337Z,79.67
2022-08-29T04:49:32.551Z,80.13
2022-08-29T04:52:18.168Z,79.85
2022-08-29T04:55:04.843Z,80.47
2022-08-29T04:57:52.700Z,80.22
2022-08-29T05:00:38.379Z,80.07
2022-08-29T05:03:23.636Z,80.38
2022-08-29T05:06:12.000Z,80.85
2022-08-29T05:08:59.918Z,80.44
2022-08-29T05:11:45.676Z,81.17
2022-08-29T05:14:31.142Z,82.05
2022-08-29T05:17:16.342Z,82.35
2022-08-29T05:20:02.494Z,83.36
2022-08-29T05:22:47.767Z,84.49
2022-08-29T05:25:33.018Z,84.71
2022-08-29T05:28:18.248Z,84.74
2022-08-29T05:31:03.291Z,85.02
2022-08-29T05:33:48.966Z,84.31
2022-08-29T05:36:34.540Z,84.40
2022-08-29T05:39:19.882Z,84.39
2022-08-29T05:42:07.140Z,83.81
2022-08-29T05:44:52.597Z,83.56
2022-08-29T05:47:38.011Z,82.72
2022-08-29T05:50:23.670Z,82.55
2022-08-29T05:53:10.185Z,82.16
2022-08-29T05:55:55.783Z,81.84
2022-08-29T05:58:40.966Z,80.74
2022-08-29T06:01:29.013Z,80.18
2022-08-29T06:04:18.771Z,79.58
2022-08-29T06:07:05.304Z,79.17
2022-08-29T06:09:52.890Z,78.66
2022-08-29T06:12:38.021Z,78.46
2022-08-29T06:15:23.578Z,78.09
2022-08-29T06:18:09.028Z,77.92
2022-08-29T06:20:54.404Z,78.23
2022-08-29T06:23:41.128Z,78.14
2022-08-29T06:26:26.858Z,77.92
2022-08-29T06:29:14.630Z,78.27
2022-08-29T06:31:59.863Z,78.07
2022-08-29T06:34:44.930Z,78.03
2022-08-29T06:37:30.083Z,78.20
2022-08-29T06:40:15.556Z,78.01
2022-08-29T06:43:00.817Z,78.46
2022-08-29T06:45:46.071Z,78.54
2022-08-29T06:48:31.358Z,78.55
2022-08-29T06:51:16.721Z,78.62
2022-08-29T06:54:07.232Z,78.64
2022-08-29T06:59:50.434Z,78.01
2022-08-29T07:02:35.659Z,77.65
2022-08-29T07:05:23.945Z,77.69
2022-08-29T07:08:09.229Z,77.27
2022-08-29T07:10:54.362Z,77.22
2022-08-29T07:13:40.806Z,77.05
2022-08-29T07:16:27.219Z,77.48
2022-08-29T07:19:12.737Z,77.18
2022-08-29T07:21:59.548Z,76.68
2022-08-29T07:24:44.788Z,76.50
2022-08-29T07:27:30.222Z,76.65
2022-08-29T07:30:16.471Z,77.22
2022-08-29T07:33:02.049Z,76.84
2022-08-29T07:35:47.438Z,76.45
2022-08-29T07:38:33.858Z,76.51
2022-08-29T07:41:21.158Z,76.50
2022-08-29T07:44:06.722Z,76.34
2022-08-29T07:47:00.258Z,76.41
2022-08-29T07:49:45.612Z,76.21
2022-08-29T07:52:31.242Z,76.47
2022-08-29T07:55:16.485Z,76.08
2022-08-29T07:58:03.888Z,76.52
2022-08-29T08:00:49.115Z,76.66
2022-08-29T08:03:35.222Z,75.69
2022-08-29T08:06:23.179Z,75.65
2022-08-29T08:09:09.964Z,75.46
2022-08-29T08:11:55.487Z,75.54
2022-08-29T08:14:40.856Z,75.28
2022-08-29T08:17:26.297Z,74.97
2022-08-29T08:20:12.535Z,74.42
2022-08-29T08:22:58.565Z,74.00
2022-08-29T08:25:47.357Z,74.03
2022-08-29T08:28:32.980Z,73.07
2022-08-29T08:31:18.999Z,73.24
2022-08-29T08:34:04.161Z,73.11
2022-08-29T08:36:50.475Z,73.03
2022-08-29T08:39:36.629Z,73.09
2022-08-29T08:42:28.759Z,73.08
2022-08-29T08:45:26.914Z,73.12
2022-08-29T08:48:18.045Z,73.36
2022-08-29T08:51:20.342Z,72.66
2022-08-29T08:54:12.345Z,72.15
2022-08-29T08:57:08.633Z,72.70
2022-08-29T08:59:58.534Z,72.56
2022-08-29T09:03:17.709Z,72.38
2022-08-29T09:06:29.256Z,72.89
2022-08-29T09:09:44.793Z,73.00
2022-08-29T09:12:49.799Z,73.18
2022-08-29T09:15:50.657Z,73.84
2022-08-29T09:18:44.287Z,73.36
2022-08-29T09:21:48.373Z,73.08
2022-08-29T09:24:53.049Z,72.09
2022-08-29T09:27:39.230Z,71.97
2022-08-29T09:30:27.999Z,71.49
2022-08-29T09:33:16.675Z,72.30
2022-08-29T09:36:03.264Z,72.47
2022-08-29T09:38:48.701Z,73.13
2022-08-29T09:41:34.073Z,73.04
2022-08-29T09:44:24.105Z,72.38
2022-08-29T09:47:19.269Z,72.23
2022-08-29T09:50:17.560Z,72.23
2022-08-29T09:53:11.659Z,72.71
2022-08-29T09:56:17.246Z,72.60
2022-08-29T09:59:11.505Z,71.87
2022-08-29T10:02:24.008Z,71.94
2022-08-29T10:05:27.848Z,72.42
2022-08-29T10:08:25.365Z,72.43
2022-08-29T10:11:16.862Z,71.21
2022-08-29T10:14:07.310Z,70.61
2022-08-29T10:17:26.730Z,70.57
2022-08-29T10:20:12.568Z,69.08
2022-08-29T10:23:06.548Z,69.24
2022-08-29T10:25:52.451Z,69.06
2022-08-29T10:28:48.213Z,68.41
2022-08-29T10:31:46.518Z,67.95
2022-08-29T10:34:55.037Z,68.43
2022-08-29T10:37:56.349Z,68.63
2022-08-29T10:40:47.333Z,68.29
2022-08-29T10:43:40.487Z,68.25
2022-08-29T10:46:39.462Z,66.93
2022-08-29T10:49:38.409Z,66.08
2022-08-29T10:52:26.614Z,65.85
2022-08-29T10:55:32.375Z,66.00
2022-08-29T10:58:24.025Z,65.65
2022-08-29T11:01:21.075Z,65.86
2022-08-29T11:04:22.564Z,66.53
2022-08-29T11:07:26.070Z,67.13
2022-08-29T11:10:24.478Z,66.91
2022-08-29T11:13:23.559Z,67.51
2022-08-29T11:16:47.599Z,66.76
2022-08-29T11:19:52.639Z,66.88
2022-08-29T11:22:41.200Z,66.38
2022-08-29T11:25:28.141Z,66.33
2022-08-29T11:28:33.503Z,65.26
2022-08-29T11:31:40.634Z,65.31
2022-08-29T11:34:52.718Z,65.03
2022-08-29T11:37:47.585Z,64.40
2022-08-29T11:44:11.174Z,64.90
2022-08-29T11:46:57.794Z,65.74
2022-08-29T11:49:50.120Z,64.97
2022-08-29T11:52:35.704Z,64.81
2022-08-29T11:55:34.063Z,65.29
2022-08-29T11:58:19.450Z,65.38
2022-08-29T12:01:06.647Z,65.24
2022-08-29T12:03:58.444Z,63.89
2022-08-29T12:07:01.017Z,63.43
2022-08-29T12:09:51.842Z,63.29
2022-08-29T12:12:41.565Z,61.43
2022-08-29T12:15:29.817Z,60.02
2022-08-29T12:18:18.171Z,59.73
2022-08-29T12:21:32.354Z,59.98
2022-08-29T12:24:32.163Z,60.31
2022-08-29T12:27:45.908Z,59.55
2022-08-29T12:30:38.116Z,60.20
2022-08-29T12:33:29.560Z,59.69
2022-08-29T12:36:38.291Z,59.11
2022-08-29T12:39:47.892Z,59.56
2022-08-29T12:42:36.272Z,59.54
2022-08-29T12:45:26.733Z,59.85
2022-08-29T12:48:26.812Z,60.78
2022-08-29T12:51:35.735Z,59.84
2022-08-29T12:54:41.310Z,60.16
2022-08-29T12:57:34.754Z,61.25
2022-08-29T13:00:24.862Z,60.53
2022-08-29T13:03:18.356Z,60.32
2022-08-29T13:06:13.855Z,60.74
2022-08-29T13:08:59.912Z,61.12
2022-08-29T13:11:45.323Z,60.52
2022-08-29T13:14:30.525Z,60.50
2022-08-29T13:17:20.591Z,60.22
2022-08-29T13:20:43.407Z,60.43
2022-08-29T13:23:38.892Z,59.89
2022-08-29T13:26:28.951Z,59.64
2022-08-29T13:29:14.459Z,60.13
2022-08-29T13:32:23.039Z,59.75
2022-08-29T13:35:14.457Z,59.53
2022-08-29T13:38:23.054Z,60.20
2022-08-29T13:41:09.051Z,58.95
2022-08-29T13:43:54.839Z,59.31
2022-08-29T13:46:47.418Z,59.20
2022-08-29T13:49:36.463Z,58.74
2022-08-29T13:52:22.013Z,58.70
2022-08-29T13:55:09.940Z,59.31
2022-08-29T13:57:57.067Z,58.54
2022-08-29T14:00:43.690Z,58.91
2022-08-29T14:03:29.954Z,59.75
2022-08-29T14:06:22.454Z,59.57
2022-08-29T14:09:09.121Z,58.44
2022-08-29T14:11:54.856Z,58.04
2022-08-29T14:14:41.267Z,58.89
2022-08-29T14:17:26.814Z,58.46
2022-08-29T14:20:14.280Z,57.58
2022-08-29T14:23:01.261Z,57.07
2022-08-29T14:25:46.715Z,57.47
2022-08-29T14:28:31.999Z,57.75
2022-08-29T14:31:17.640Z,57.92
2022-08-29T14:34:03.538Z,57.38
2022-08-29T14:36:49.281Z,57.43
2022-08-29T14:39:35.045Z,57.61
2022-08-29T14:42:20.643Z,57.47
2022-08-29T14:45:07.845Z,57.50
2022-08-29T14:47:53.813Z,58.23
2022-08-29T14:50:39.422Z,57.49
2022-08-29T14:53:24.982Z,58.00
2022-08-29T14:56:25.493Z,58.34
2022-08-29T14:59:16.113Z,58.77
2022-08-29T15:02:03.373Z,59.10
2022-08-29T15:04:50.031Z,57.74
2022-08-29T15:07:35.382Z,57.50
2022-08-29T15:10:23.924Z,56.59
2022-08-29T15:13:09.670Z,55.65
2022-08-29T15:15:55.062Z,56.50
2022-08-29T15:19:31.194Z,56.78
2022-08-29T15:21:46.079Z,56.48
2022-08-29T15:24:31.770Z,56.32
2022-08-29T15:27:23.618Z,56.81
2022-08-29T15:30:12.465Z,57.57
2022-08-29T15:32:58.443Z,57.22
2022-08-29T15:35:44.392Z,57.04
2022-08-29T15:38:29.451Z,56.79
2022-08-29T15:41:15.486Z,57.04
2022-08-29T15:44:01.639Z,57.12
2022-08-29T15:46:50.724Z,57.33
2022-08-29T15:49:37.081Z,57.78
2022-08-29T15:52:22.421Z,58.31
2022-08-29T15:55:08.315Z,58.24
2022-08-29T15:57:53.559Z,58.23
2022-08-29T16:00:39.623Z,58.13
2022-08-29T16:03:25.323Z,58.05
2022-08-29T16:06:11.229Z,58.76
2022-08-29T16:08:56.680Z,58.15
2022-08-29T16:11:42.681Z,58.63
2022-08-29T16:14:58.181Z,58.79
2022-08-29T16:17:33.588Z,59.58
2022-08-29T16:20:19.221Z,59.28
2022-08-29T16:23:04.764Z,59.18
2022-08-29T16:25:50.105Z,59.15
2022-08-29T16:28:35.593Z,59.56
2022-08-29T16:31:21.503Z,59.36
2022-08-29T16:34:07.165Z,59.72
2022-08-29T16:36:56.438Z,59.71
2022-08-29T16:39:41.631Z,59.08
2022-08-29T16:42:30.453Z,59.14
2022-08-29T16:45:16.209Z,59.43
2022-08-29T16:48:02.362Z,59.58
2022-08-29T16:50:49.754Z,59.90
2022-08-29T16:53:39.326Z,60.05
2022-08-29T16:56:24.689Z,59.72
2022-08-29T16:59:12.282Z,59.01
2022-08-29T17:01:57.669Z,59.22
2022-08-29T17:04:42.979Z,59.50
2022-08-29T17:07:37.103Z,60.20
2022-08-29T17:10:22.504Z,59.98
2022-08-29T17:13:08.321Z,59.90
2022-08-29T17:15:53.864Z,59.96
2022-08-29T17:18:39.204Z,60.41
2022-08-29T17:21:24.190Z,60.83
2022-08-29T17:24:10.732Z,61.14
2022-08-29T17:26:56.925Z,61.61
2022-08-29T17:29:42.465Z,62.35
2022-08-29T17:32:28.373Z,63.42
2022-08-29T17:35:13.437Z,63.54
2022-08-29T17:37:58.681Z,64.19
2022-08-29T17:40:44.103Z,64.72
2022-08-29T17:43:29.888Z,64.54
2022-08-29T17:46:16.838Z,64.99
2022-08-29T17:49:06.922Z,65.33
2022-08-29T17:51:53.899Z,65.38
2022-08-29T17:54:39.408Z,65.78
2022-08-29T17:57:26.054Z,66.34
2022-08-29T18:00:13.048Z,66.41
2022-08-29T18:02:58.806Z,66.40
2022-08-29T18:05:44.050Z,66.67
2022-08-29T18:08:29.169Z,66.66
2022-08-29T18:11:15.598Z,66.74
2022-08-29T18:14:01.874Z,67.16
2022-08-29T18:16:47.391Z,67.35
2022-08-29T18:19:32.638Z,67.41
2022-08-29T18:22:17.889Z,67.85
2022-08-29T18:25:07.413Z,67.73
2022-08-29T18:28:02.235Z,68.37
2022-08-29T18:30:48.958Z,68.51
2022-08-29T18:33:59.511Z,68.86
2022-08-29T18:36:47.706Z,69.12
2022-08-29T18:39:33.333Z,69.31
2022-08-29T18:42:39.014Z,69.79
2022-08-29T18:45:25.688Z,70.05
2022-08-29T18:48:11.259Z,70.17
2022-08-29T18:50:58.021Z,70.39
2022-08-29T18:53:43.808Z,70.68
2022-08-29T18:56:28.986Z,70.80
2022-08-29T18:59:14.384Z,71.54
2022-08-29T19:02:00.015Z,71.84
2022-08-29T19:04:45.626Z,71.85
2022-08-29T19:07:30.922Z,71.81
2022-08-29T19:10:16.452Z,72.07
2022-08-29T19:13:02.753Z,72.59
2022-08-29T19:15:48.548Z,72.66
2022-08-29T19:18:34.324Z,72.88
2022-08-29T19:21:19.443Z,73.04
2022-08-29T19:24:04.783Z,73.18
2022-08-29T19:26:50.117Z,73.54
2022-08-29T19:29:35.623Z,73.69
2022-08-29T19:32:20.752Z,74.01
2022-08-29T19:35:06.716Z,74.08
2022-08-29T19:38:02.589Z,74.89
2022-08-29T19:40:54.317Z,74.77
2022-08-29T19:43:43.717Z,74.79
2022-08-29T19:46:32.211Z,74.55
2022-08-29T19:49:17.794Z,75.00
2022-08-29T19:52:18.906Z,75.34
2022-08-29T19:55:07.713Z,75.39
2022-08-29T19:57:54.149Z,75.76
2022-08-29T20:00:42.427Z,75.92
2022-08-29T20:03:27.864Z,76.16
2022-08-29T20:06:16.795Z,76.23
2022-08-29T20:09:02.205Z,76.87
2022-08-29T20:11:56.687Z,77.26
2022-08-29T20:14:44.833Z,77.85
2022-08-29T20:17:30.949Z,78.04
2022-08-29T20:20:24.942Z,78.28
2022-08-29T20:23:12.532Z,78.58
2022-08-29T20:26:11.779Z,79.01
2022-08-29T20:29:00.317Z,79.37
2022-08-29T20:31:48.334Z,79.44
2022-08-29T20:34:34.427Z,80.05
2022-08-29T20:37:22.672Z,79.87
2022-08-29T20:40:14.566Z,80.56
2022-08-29T20:42:59.980Z,80.91
2022-08-29T20:45:46.386Z,81.08
2022-08-29T20:48:32.286Z,81.37
2022-08-29T20:51:17.956Z,81.55
2022-08-29T20:54:03.853Z,81.75
2022-08-29T20:56:49.957Z,81.98
2022-08-29T20:59:39.395Z,82.22
2022-08-29T21:02:24.982Z,82.64
2022-08-29T21:05:29.488Z,82.74
2022-08-29T21:08:18.353Z,82.60
2022-08-29T21:11:05.306Z,83.29
2022-08-29T21:13:53.310Z,83.52
2022-08-29T21:16:39.226Z,83.89
2022-08-29T21:19:27.255Z,84.24
2022-08-29T21:22:13.859Z,84.72
2022-08-29T21:24:59.224Z,84.99
2022-08-29T21:27:44.453Z,85.37
2022-08-29T21:30:30.475Z,85.83
2022-08-29T21:33:16.038Z,86.01
2022-08-29T21:36:01.524Z,86.61
2022-08-29T21:38:48.132Z,86.80
2022-08-29T21:41:37.169Z,87.21
2022-08-29T21:44:22.461Z,87.62
2022-08-29T21:47:07.777Z,88.02
2022-08-29T21:49:52.919Z,88.10
2022-08-29T21:52:38.464Z,88.32
2022-08-29T21:55:23.883Z,88.72
2022-08-29T21:58:09.363Z,88.82
2022-08-29T22:00:54.633Z,89.42
2022-08-29T22:03:40.307Z,89.48
2022-08-29T22:06:27.701Z,89.83
2022-08-29T22:09:16.307Z,89.91
2022-08-29T22:12:03.714Z,90.07
2022-08-29T22:15:07.189Z,90.10
2022-08-29T22:17:52.317Z,90.57
2022-08-29T22:20:38.342Z,90.74
2022-08-29T22:23:24.623Z,91.04
2022-08-29T22:26:10.719Z,90.97
2022-08-29T22:28:56.048Z,90.71
2022-08-29T22:31:42.984Z,90.75
2022-08-29T22:34:28.231Z,91.04
2022-08-29T22:37:13.434Z,91.10
2022-08-29T22:40:00.097Z,90.84
2022-08-29T22:42:46.166Z,91.00
2022-08-29T22:45:32.233Z,91.03
2022-08-29T22:48:19.376Z,91.26
2022-08-29T22:51:05.463Z,91.66
2022-08-29T22:54:10.764Z,91.72
2022-08-29T22:56:55.997Z,92.17
2022-08-29T22:59:43.153Z,92.37
2022-08-29T23:02:28.360Z,92.44
2022-08-29T23:05:15.051Z,92.34
2022-08-29T23:08:00.271Z,92.32
2022-08-29T23:10:49.184Z,92.39
2022-08-29T23:13:35.015Z,92.48
2022-08-29T23:16:23.621Z,92.44
2022-08-29T23:19:08.775Z,92.42
2022-08-29T23:21:54.077Z,92.39
2022-08-29T23:24:51.557Z,92.34
2022-08-29T23:27:43.446Z,92.67
2022-08-29T23:30:28.827Z,92.64
2022-08-29T23:33:16.423Z,92.95
2022-08-29T23:36:02.114Z,93.19
2022-08-29T23:38:48.237Z,93.47
2022-08-29T23:41:37.749Z,93.96
2022-08-29T23:44:22.859Z,94.19
2022-08-29T23:47:08.439Z,94.59
2022-08-29T23:49:53.875Z,95.25
2022-08-29T23:52:40.225Z,95.49
2022-08-29T23:55:26.103Z,95.92
2022-08-29T23:58:12.236Z,96.14
